sensor_id;sensor_type;location;lat;lon;timestamp;P1;durP1;ratioP1;P2;durP2;ratioP2
56752;SDS011;42627;42.646;23.642;2023-01-04T00:00:01;23.40;;;11.90;;
56752;SDS011;42627;42.646;23.642;2023-01-04T00:02:02;19.92;;;8.85;;
56752;SDS011;42627;42.646;23.642;2023-01-04T00:04:03;17.00;;;9.10;;
56752;SDS011;42627;42.646;23.642;2023-01-04T00:06:05;24.80;;;9.90;;
56752;SDS011;42627;42.646;23.642;2023-01-04T00:08:09;14.30;;;8.15;;
56752;SDS011;42627;42.646;23.642;2023-01-04T00:10:13;19.60;;;8.63;;
56752;SDS011;42627;42.646;23.642;2023-01-04T00:12:14;16.83;;;8.32;;
56752;SDS011;42627;42.646;23.642;2023-01-04T00:14:15;14.38;;;7.80;;
56752;SDS011;42627;42.646;23.642;2023-01-04T00:16:19;23.02;;;8.93;;
56752;SDS011;42627;42.646;23.642;2023-01-04T00:18:20;25.08;;;9.27;;
56752;SDS011;42627;42.646;23.642;2023-01-04T00:20:21;13.75;;;7.65;;
56752;SDS011;42627;42.646;23.642;2023-01-04T00:22:22;13.85;;;7.93;;
56752;SDS011;42627;42.646;23.642;2023-01-04T00:24:23;14.63;;;7.38;;
56752;SDS011;42627;42.646;23.642;2023-01-04T00:26:28;16.83;;;8.45;;
56752;SDS011;42627;42.646;23.642;2023-01-04T00:28:29;26.42;;;11.40;;
56752;SDS011;42627;42.646;23.642;2023-01-04T00:30:30;23.65;;;11.63;;
56752;SDS011;42627;42.646;23.642;2023-01-04T00:32:31;27.13;;;14.45;;
56752;SDS011;42627;42.646;23.642;2023-01-04T00:34:32;23.55;;;12.57;;
56752;SDS011;42627;42.646;23.642;2023-01-04T00:36:33;19.77;;;11.57;;
56752;SDS011;42627;42.646;23.642;2023-01-04T00:38:39;22.50;;;10.50;;
56752;SDS011;42627;42.646;23.642;2023-01-04T00:41:10;23.17;;;9.98;;
56752;SDS011;42627;42.646;23.642;2023-01-04T00:43:11;17.83;;;9.55;;
56752;SDS011;42627;42.646;23.642;2023-01-04T00:45:12;21.23;;;10.30;;
56752;SDS011;42627;42.646;23.642;2023-01-04T00:47:14;19.73;;;12.00;;
56752;SDS011;42627;42.646;23.642;2023-01-04T00:49:15;29.92;;;12.90;;
56752;SDS011;42627;42.646;23.642;2023-01-04T00:51:16;14.63;;;8.23;;
56752;SDS011;42627;42.646;23.642;2023-01-04T00:53:17;18.58;;;10.38;;
56752;SDS011;42627;42.646;23.642;2023-01-04T00:57:29;13.30;;;8.38;;
56752;SDS011;42627;42.646;23.642;2023-01-04T00:59:30;15.15;;;8.93;;
56752;SDS011;42627;42.646;23.642;2023-01-04T01:01:32;19.73;;;10.40;;
56752;SDS011;42627;42.646;23.642;2023-01-04T01:03:33;18.45;;;9.50;;
56752;SDS011;42627;42.646;23.642;2023-01-04T01:05:35;16.83;;;9.05;;
56752;SDS011;42627;42.646;23.642;2023-01-04T01:07:36;19.45;;;9.13;;
56752;SDS011;42627;42.646;23.642;2023-01-04T01:09:38;15.85;;;8.95;;
56752;SDS011;42627;42.646;23.642;2023-01-04T01:11:40;24.50;;;8.35;;
56752;SDS011;42627;42.646;23.642;2023-01-04T01:13:41;16.55;;;8.77;;
56752;SDS011;42627;42.646;23.642;2023-01-04T01:15:42;27.75;;;8.38;;
56752;SDS011;42627;42.646;23.642;2023-01-04T01:17:43;24.08;;;8.63;;
56752;SDS011;42627;42.646;23.642;2023-01-04T01:19:44;18.52;;;7.45;;
56752;SDS011;42627;42.646;23.642;2023-01-04T01:21:45;19.80;;;8.15;;
56752;SDS011;42627;42.646;23.642;2023-01-04T01:23:46;13.38;;;6.95;;
56752;SDS011;42627;42.646;23.642;2023-01-04T01:25:47;16.33;;;8.07;;
56752;SDS011;42627;42.646;23.642;2023-01-04T01:27:48;16.38;;;7.82;;
56752;SDS011;42627;42.646;23.642;2023-01-04T01:29:49;20.15;;;9.82;;
56752;SDS011;42627;42.646;23.642;2023-01-04T01:31:50;16.83;;;8.63;;
56752;SDS011;42627;42.646;23.642;2023-01-04T01:33:53;16.75;;;7.05;;
56752;SDS011;42627;42.646;23.642;2023-01-04T01:35:54;19.05;;;10.10;;
56752;SDS011;42627;42.646;23.642;2023-01-04T01:37:55;15.43;;;8.48;;
56752;SDS011;42627;42.646;23.642;2023-01-04T01:39:56;22.50;;;9.00;;
56752;SDS011;42627;42.646;23.642;2023-01-04T01:41:59;20.13;;;9.32;;
56752;SDS011;42627;42.646;23.642;2023-01-04T01:44:04;25.27;;;10.07;;
56752;SDS011;42627;42.646;23.642;2023-01-04T01:46:05;22.45;;;9.00;;
56752;SDS011;42627;42.646;23.642;2023-01-04T01:48:10;23.17;;;10.25;;
56752;SDS011;42627;42.646;23.642;2023-01-04T01:50:22;29.63;;;11.13;;
56752;SDS011;42627;42.646;23.642;2023-01-04T01:52:28;21.77;;;8.48;;
56752;SDS011;42627;42.646;23.642;2023-01-04T01:54:35;18.80;;;8.13;;
56752;SDS011;42627;42.646;23.642;2023-01-04T01:56:37;18.10;;;8.27;;
56752;SDS011;42627;42.646;23.642;2023-01-04T01:58:41;28.25;;;11.75;;
56752;SDS011;42627;42.646;23.642;2023-01-04T02:00:43;23.55;;;10.68;;
56752;SDS011;42627;42.646;23.642;2023-01-04T02:02:50;24.73;;;9.75;;
56752;SDS011;42627;42.646;23.642;2023-01-04T02:04:52;18.30;;;9.70;;
56752;SDS011;42627;42.646;23.642;2023-01-04T02:06:55;18.35;;;10.75;;
56752;SDS011;42627;42.646;23.642;2023-01-04T02:08:58;26.48;;;10.77;;
56752;SDS011;42627;42.646;23.642;2023-01-04T02:11:01;22.13;;;10.52;;
56752;SDS011;42627;42.646;23.642;2023-01-04T02:13:05;17.52;;;8.35;;
56752;SDS011;42627;42.646;23.642;2023-01-04T02:15:08;19.48;;;7.90;;
56752;SDS011;42627;42.646;23.642;2023-01-04T02:17:55;15.57;;;7.75;;
56752;SDS011;42627;42.646;23.642;2023-01-04T02:19:42;17.00;;;6.97;;
56752;SDS011;42627;42.646;23.642;2023-01-04T02:35:31;18.30;;;8.93;;
56752;SDS011;42627;42.646;23.642;2023-01-04T02:37:44;22.58;;;9.05;;
56752;SDS011;42627;42.646;23.642;2023-01-04T02:39:57;17.98;;;7.88;;
56752;SDS011;42627;42.646;23.642;2023-01-04T02:42:31;16.30;;;8.07;;
56752;SDS011;42627;42.646;23.642;2023-01-04T02:45:01;15.20;;;7.40;;
56752;SDS011;42627;42.646;23.642;2023-01-04T02:47:05;15.10;;;8.20;;
56752;SDS011;42627;42.646;23.642;2023-01-04T02:49:06;17.25;;;7.13;;
56752;SDS011;42627;42.646;23.642;2023-01-04T02:51:31;16.42;;;9.38;;
56752;SDS011;42627;42.646;23.642;2023-01-04T02:53:34;25.02;;;11.07;;
56752;SDS011;42627;42.646;23.642;2023-01-04T02:57:59;16.25;;;9.50;;
56752;SDS011;42627;42.646;23.642;2023-01-04T03:07:26;16.05;;;9.43;;
56752;SDS011;42627;42.646;23.642;2023-01-04T03:09:33;16.75;;;9.20;;
56752;SDS011;42627;42.646;23.642;2023-01-04T03:11:48;21.55;;;10.68;;
56752;SDS011;42627;42.646;23.642;2023-01-04T03:14:13;34.40;;;14.90;;
56752;SDS011;42627;42.646;23.642;2023-01-04T03:16:16;27.77;;;11.45;;
56752;SDS011;42627;42.646;23.642;2023-01-04T03:18:19;37.47;;;13.55;;
56752;SDS011;42627;42.646;23.642;2023-01-04T03:20:22;29.17;;;14.98;;
56752;SDS011;42627;42.646;23.642;2023-01-04T03:24:53;29.60;;;10.63;;
56752;SDS011;42627;42.646;23.642;2023-01-04T03:27:13;21.08;;;11.27;;
56752;SDS011;42627;42.646;23.642;2023-01-04T03:29:37;27.27;;;13.43;;
56752;SDS011;42627;42.646;23.642;2023-01-04T03:32:00;31.90;;;14.70;;
56752;SDS011;42627;42.646;23.642;2023-01-04T03:34:22;36.33;;;17.65;;
56752;SDS011;42627;42.646;23.642;2023-01-04T03:39:00;23.95;;;10.73;;
56752;SDS011;42627;42.646;23.642;2023-01-04T03:41:24;31.15;;;12.75;;
56752;SDS011;42627;42.646;23.642;2023-01-04T03:43:55;20.92;;;9.93;;
56752;SDS011;42627;42.646;23.642;2023-01-04T03:46:28;26.30;;;11.32;;
56752;SDS011;42627;42.646;23.642;2023-01-04T03:49:36;24.85;;;13.52;;
56752;SDS011;42627;42.646;23.642;2023-01-04T03:51:17;28.48;;;13.43;;
56752;SDS011;42627;42.646;23.642;2023-01-04T03:53:18;27.98;;;12.18;;
56752;SDS011;42627;42.646;23.642;2023-01-04T03:55:20;30.52;;;14.07;;
56752;SDS011;42627;42.646;23.642;2023-01-04T03:57:22;31.90;;;16.10;;
56752;SDS011;42627;42.646;23.642;2023-01-04T03:59:24;28.08;;;16.55;;
56752;SDS011;42627;42.646;23.642;2023-01-04T04:01:26;43.33;;;18.60;;
56752;SDS011;42627;42.646;23.642;2023-01-04T04:03:27;34.58;;;13.68;;
56752;SDS011;42627;42.646;23.642;2023-01-04T04:05:47;28.55;;;12.20;;
56752;SDS011;42627;42.646;23.642;2023-01-04T04:08:09;24.70;;;9.70;;
56752;SDS011;42627;42.646;23.642;2023-01-04T04:10:31;14.73;;;9.95;;
56752;SDS011;42627;42.646;23.642;2023-01-04T04:12:32;21.30;;;9.50;;
56752;SDS011;42627;42.646;23.642;2023-01-04T04:14:33;17.58;;;8.02;;
56752;SDS011;42627;42.646;23.642;2023-01-04T04:16:34;21.45;;;9.93;;
56752;SDS011;42627;42.646;23.642;2023-01-04T04:18:35;21.17;;;8.73;;
56752;SDS011;42627;42.646;23.642;2023-01-04T04:20:36;18.67;;;8.20;;
56752;SDS011;42627;42.646;23.642;2023-01-04T04:22:37;23.40;;;9.23;;
56752;SDS011;42627;42.646;23.642;2023-01-04T04:24:38;29.27;;;10.82;;
56752;SDS011;42627;42.646;23.642;2023-01-04T04:26:39;20.90;;;9.52;;
56752;SDS011;42627;42.646;23.642;2023-01-04T04:28:41;24.08;;;9.40;;
56752;SDS011;42627;42.646;23.642;2023-01-04T04:30:42;18.80;;;9.05;;
56752;SDS011;42627;42.646;23.642;2023-01-04T04:32:43;19.95;;;8.63;;
56752;SDS011;42627;42.646;23.642;2023-01-04T04:34:44;18.48;;;9.43;;
56752;SDS011;42627;42.646;23.642;2023-01-04T04:36:45;23.42;;;11.00;;
56752;SDS011;42627;42.646;23.642;2023-01-04T04:38:47;23.27;;;9.27;;
56752;SDS011;42627;42.646;23.642;2023-01-04T04:40:56;19.92;;;6.80;;
56752;SDS011;42627;42.646;23.642;2023-01-04T04:43:16;15.00;;;9.32;;
56752;SDS011;42627;42.646;23.642;2023-01-04T04:45:17;15.82;;;7.97;;
56752;SDS011;42627;42.646;23.642;2023-01-04T04:47:18;18.85;;;9.55;;
56752;SDS011;42627;42.646;23.642;2023-01-04T04:49:19;19.80;;;10.00;;
56752;SDS011;42627;42.646;23.642;2023-01-04T04:51:20;20.77;;;10.57;;
56752;SDS011;42627;42.646;23.642;2023-01-04T04:53:21;21.58;;;9.93;;
56752;SDS011;42627;42.646;23.642;2023-01-04T04:55:22;22.60;;;10.30;;
56752;SDS011;42627;42.646;23.642;2023-01-04T04:57:29;23.40;;;11.00;;
56752;SDS011;42627;42.646;23.642;2023-01-04T04:59:30;27.15;;;11.90;;
56752;SDS011;42627;42.646;23.642;2023-01-04T05:01:31;23.38;;;10.30;;
56752;SDS011;42627;42.646;23.642;2023-01-04T05:03:32;20.65;;;10.35;;
56752;SDS011;42627;42.646;23.642;2023-01-04T05:05:33;20.27;;;9.43;;
56752;SDS011;42627;42.646;23.642;2023-01-04T05:07:35;26.13;;;10.52;;
56752;SDS011;42627;42.646;23.642;2023-01-04T05:09:52;21.05;;;10.18;;
56752;SDS011;42627;42.646;23.642;2023-01-04T05:11:53;22.88;;;9.50;;
56752;SDS011;42627;42.646;23.642;2023-01-04T05:14:12;18.92;;;10.40;;
56752;SDS011;42627;42.646;23.642;2023-01-04T05:16:13;22.55;;;9.98;;
56752;SDS011;42627;42.646;23.642;2023-01-04T05:18:15;22.45;;;10.75;;
56752;SDS011;42627;42.646;23.642;2023-01-04T05:20:16;19.20;;;10.48;;
56752;SDS011;42627;42.646;23.642;2023-01-04T05:22:17;15.48;;;8.20;;
56752;SDS011;42627;42.646;23.642;2023-01-04T05:24:18;19.20;;;9.30;;
56752;SDS011;42627;42.646;23.642;2023-01-04T05:26:19;21.98;;;10.88;;
56752;SDS011;42627;42.646;23.642;2023-01-04T05:28:20;22.85;;;10.80;;
56752;SDS011;42627;42.646;23.642;2023-01-04T05:30:21;25.25;;;10.18;;
56752;SDS011;42627;42.646;23.642;2023-01-04T05:32:41;27.30;;;10.75;;
56752;SDS011;42627;42.646;23.642;2023-01-04T05:34:42;23.45;;;10.55;;
56752;SDS011;42627;42.646;23.642;2023-01-04T05:36:44;24.33;;;11.10;;
56752;SDS011;42627;42.646;23.642;2023-01-04T05:38:45;20.83;;;10.38;;
56752;SDS011;42627;42.646;23.642;2023-01-04T05:40:49;29.52;;;11.50;;
56752;SDS011;42627;42.646;23.642;2023-01-04T05:42:50;20.13;;;9.70;;
56752;SDS011;42627;42.646;23.642;2023-01-04T05:44:52;22.63;;;10.57;;
56752;SDS011;42627;42.646;23.642;2023-01-04T05:46:54;19.58;;;9.75;;
56752;SDS011;42627;42.646;23.642;2023-01-04T05:48:55;28.25;;;11.48;;
56752;SDS011;42627;42.646;23.642;2023-01-04T05:50:56;24.75;;;12.90;;
56752;SDS011;42627;42.646;23.642;2023-01-04T05:52:57;27.58;;;13.10;;
56752;SDS011;42627;42.646;23.642;2023-01-04T05:54:58;36.47;;;14.35;;
56752;SDS011;42627;42.646;23.642;2023-01-04T05:56:59;33.28;;;14.73;;
56752;SDS011;42627;42.646;23.642;2023-01-04T05:59:00;33.20;;;13.82;;
56752;SDS011;42627;42.646;23.642;2023-01-04T06:01:00;31.73;;;14.35;;
56752;SDS011;42627;42.646;23.642;2023-01-04T06:03:01;30.38;;;13.25;;
56752;SDS011;42627;42.646;23.642;2023-01-04T06:05:05;31.02;;;13.35;;
56752;SDS011;42627;42.646;23.642;2023-01-04T06:07:07;39.30;;;16.05;;
56752;SDS011;42627;42.646;23.642;2023-01-04T06:09:08;33.70;;;15.48;;
56752;SDS011;42627;42.646;23.642;2023-01-04T06:11:09;30.95;;;15.27;;
56752;SDS011;42627;42.646;23.642;2023-01-04T06:13:10;24.63;;;12.48;;
56752;SDS011;42627;42.646;23.642;2023-01-04T06:15:11;30.60;;;14.45;;
56752;SDS011;42627;42.646;23.642;2023-01-04T06:17:12;29.35;;;13.00;;
56752;SDS011;42627;42.646;23.642;2023-01-04T06:19:13;33.30;;;15.98;;
56752;SDS011;42627;42.646;23.642;2023-01-04T06:21:14;31.30;;;15.52;;
56752;SDS011;42627;42.646;23.642;2023-01-04T06:23:15;29.35;;;12.25;;
56752;SDS011;42627;42.646;23.642;2023-01-04T06:25:16;27.85;;;11.90;;
56752;SDS011;42627;42.646;23.642;2023-01-04T06:27:17;24.23;;;11.45;;
56752;SDS011;42627;42.646;23.642;2023-01-04T06:29:18;17.55;;;8.63;;
56752;SDS011;42627;42.646;23.642;2023-01-04T06:31:19;22.65;;;11.40;;
56752;SDS011;42627;42.646;23.642;2023-01-04T06:33:20;20.10;;;9.60;;
56752;SDS011;42627;42.646;23.642;2023-01-04T06:35:21;19.50;;;9.65;;
56752;SDS011;42627;42.646;23.642;2023-01-04T06:37:22;17.60;;;9.90;;
56752;SDS011;42627;42.646;23.642;2023-01-04T06:39:23;18.63;;;9.35;;
56752;SDS011;42627;42.646;23.642;2023-01-04T06:41:25;24.17;;;9.85;;
56752;SDS011;42627;42.646;23.642;2023-01-04T06:43:26;19.90;;;10.27;;
56752;SDS011;42627;42.646;23.642;2023-01-04T06:45:27;21.98;;;9.88;;
56752;SDS011;42627;42.646;23.642;2023-01-04T06:47:28;24.25;;;10.40;;
56752;SDS011;42627;42.646;23.642;2023-01-04T06:49:29;30.75;;;11.75;;
56752;SDS011;42627;42.646;23.642;2023-01-04T06:51:30;31.80;;;12.07;;
56752;SDS011;42627;42.646;23.642;2023-01-04T06:53:31;23.45;;;12.85;;
56752;SDS011;42627;42.646;23.642;2023-01-04T06:55:32;40.40;;;17.35;;
56752;SDS011;42627;42.646;23.642;2023-01-04T06:57:33;33.60;;;14.80;;
56752;SDS011;42627;42.646;23.642;2023-01-04T06:59:34;46.20;;;16.60;;
56752;SDS011;42627;42.646;23.642;2023-01-04T07:01:35;44.70;;;19.40;;
56752;SDS011;42627;42.646;23.642;2023-01-04T07:03:36;37.70;;;17.05;;
56752;SDS011;42627;42.646;23.642;2023-01-04T07:05:37;33.15;;;15.93;;
56752;SDS011;42627;42.646;23.642;2023-01-04T07:07:38;34.95;;;17.45;;
56752;SDS011;42627;42.646;23.642;2023-01-04T07:09:39;43.83;;;19.02;;
56752;SDS011;42627;42.646;23.642;2023-01-04T07:11:40;41.63;;;19.60;;
56752;SDS011;42627;42.646;23.642;2023-01-04T07:13:41;36.40;;;16.13;;
56752;SDS011;42627;42.646;23.642;2023-01-04T07:15:42;32.72;;;17.02;;
56752;SDS011;42627;42.646;23.642;2023-01-04T07:17:45;28.63;;;11.90;;
56752;SDS011;42627;42.646;23.642;2023-01-04T07:19:47;17.92;;;9.35;;
56752;SDS011;42627;42.646;23.642;2023-01-04T07:21:48;22.52;;;10.93;;
56752;SDS011;42627;42.646;23.642;2023-01-04T07:23:49;20.15;;;9.60;;
56752;SDS011;42627;42.646;23.642;2023-01-04T07:28:01;24.60;;;11.43;;
56752;SDS011;42627;42.646;23.642;2023-01-04T07:30:02;20.02;;;9.43;;
56752;SDS011;42627;42.646;23.642;2023-01-04T07:32:03;19.08;;;11.05;;
56752;SDS011;42627;42.646;23.642;2023-01-04T07:34:04;21.27;;;9.82;;
56752;SDS011;42627;42.646;23.642;2023-01-04T07:36:06;22.00;;;10.13;;
56752;SDS011;42627;42.646;23.642;2023-01-04T07:38:07;17.10;;;10.43;;
56752;SDS011;42627;42.646;23.642;2023-01-04T07:40:08;19.77;;;10.32;;
56752;SDS011;42627;42.646;23.642;2023-01-04T07:42:11;20.23;;;10.32;;
56752;SDS011;42627;42.646;23.642;2023-01-04T07:44:15;20.65;;;9.57;;
56752;SDS011;42627;42.646;23.642;2023-01-04T07:48:41;19.52;;;9.88;;
56752;SDS011;42627;42.646;23.642;2023-01-04T07:50:43;39.50;;;16.63;;
56752;SDS011;42627;42.646;23.642;2023-01-04T07:52:44;45.58;;;19.05;;
56752;SDS011;42627;42.646;23.642;2023-01-04T07:54:45;51.45;;;22.77;;
56752;SDS011;42627;42.646;23.642;2023-01-04T07:56:46;41.45;;;19.48;;
56752;SDS011;42627;42.646;23.642;2023-01-04T07:58:47;58.47;;;25.38;;
56752;SDS011;42627;42.646;23.642;2023-01-04T08:02:59;48.95;;;23.65;;
56752;SDS011;42627;42.646;23.642;2023-01-04T08:05:00;63.38;;;24.83;;
56752;SDS011;42627;42.646;23.642;2023-01-04T08:07:02;53.28;;;26.58;;
56752;SDS011;42627;42.646;23.642;2023-01-04T08:09:03;71.75;;;30.70;;
56752;SDS011;42627;42.646;23.642;2023-01-04T08:11:05;66.57;;;28.58;;
56752;SDS011;42627;42.646;23.642;2023-01-04T08:13:07;65.53;;;28.77;;
56752;SDS011;42627;42.646;23.642;2023-01-04T08:15:08;67.28;;;31.35;;
56752;SDS011;42627;42.646;23.642;2023-01-04T08:17:12;65.82;;;28.65;;
56752;SDS011;42627;42.646;23.642;2023-01-04T08:19:33;63.58;;;26.83;;
56752;SDS011;42627;42.646;23.642;2023-01-04T08:21:34;74.95;;;30.35;;
56752;SDS011;42627;42.646;23.642;2023-01-04T08:23:35;71.07;;;32.92;;
56752;SDS011;42627;42.646;23.642;2023-01-04T08:25:37;78.00;;;33.53;;
56752;SDS011;42627;42.646;23.642;2023-01-04T08:27:38;70.78;;;28.25;;
56752;SDS011;42627;42.646;23.642;2023-01-04T08:29:40;51.33;;;23.70;;
56752;SDS011;42627;42.646;23.642;2023-01-04T08:31:42;62.17;;;23.98;;
56752;SDS011;42627;42.646;23.642;2023-01-04T08:33:43;62.28;;;24.25;;
56752;SDS011;42627;42.646;23.642;2023-01-04T08:35:53;49.47;;;24.75;;
56752;SDS011;42627;42.646;23.642;2023-01-04T08:37:54;59.83;;;30.15;;
56752;SDS011;42627;42.646;23.642;2023-01-04T08:39:55;53.97;;;27.25;;
56752;SDS011;42627;42.646;23.642;2023-01-04T08:41:56;42.20;;;23.20;;
56752;SDS011;42627;42.646;23.642;2023-01-04T08:43:57;38.67;;;17.88;;
56752;SDS011;42627;42.646;23.642;2023-01-04T08:46:04;36.53;;;16.13;;
56752;SDS011;42627;42.646;23.642;2023-01-04T08:48:05;38.85;;;13.48;;
56752;SDS011;42627;42.646;23.642;2023-01-04T08:50:08;26.17;;;12.63;;
56752;SDS011;42627;42.646;23.642;2023-01-04T08:52:09;24.65;;;11.80;;
56752;SDS011;42627;42.646;23.642;2023-01-04T08:54:11;25.80;;;13.18;;
56752;SDS011;42627;42.646;23.642;2023-01-04T08:56:12;28.13;;;13.70;;
56752;SDS011;42627;42.646;23.642;2023-01-04T08:58:13;27.85;;;14.15;;
56752;SDS011;42627;42.646;23.642;2023-01-04T09:00:14;25.45;;;11.95;;
56752;SDS011;42627;42.646;23.642;2023-01-04T09:02:21;32.38;;;13.68;;
56752;SDS011;42627;42.646;23.642;2023-01-04T09:04:22;24.10;;;10.95;;
56752;SDS011;42627;42.646;23.642;2023-01-04T09:06:29;30.63;;;11.35;;
56752;SDS011;42627;42.646;23.642;2023-01-04T09:08:31;23.38;;;10.88;;
56752;SDS011;42627;42.646;23.642;2023-01-04T09:10:32;26.35;;;11.00;;
56752;SDS011;42627;42.646;23.642;2023-01-04T09:12:35;25.42;;;11.88;;
56752;SDS011;42627;42.646;23.642;2023-01-04T09:14:36;28.40;;;11.88;;
56752;SDS011;42627;42.646;23.642;2023-01-04T09:16:39;29.90;;;11.73;;
56752;SDS011;42627;42.646;23.642;2023-01-04T09:18:41;25.15;;;12.40;;
56752;SDS011;42627;42.646;23.642;2023-01-04T09:20:42;28.73;;;13.23;;
56752;SDS011;42627;42.646;23.642;2023-01-04T09:22:43;30.80;;;13.27;;
56752;SDS011;42627;42.646;23.642;2023-01-04T09:24:44;27.92;;;11.98;;
56752;SDS011;42627;42.646;23.642;2023-01-04T09:26:45;29.33;;;12.50;;
56752;SDS011;42627;42.646;23.642;2023-01-04T09:28:47;24.58;;;10.52;;
56752;SDS011;42627;42.646;23.642;2023-01-04T09:30:48;25.83;;;10.43;;
56752;SDS011;42627;42.646;23.642;2023-01-04T09:32:49;24.27;;;10.48;;
56752;SDS011;42627;42.646;23.642;2023-01-04T09:37:01;24.35;;;9.70;;
56752;SDS011;42627;42.646;23.642;2023-01-04T09:39:02;18.45;;;9.45;;
56752;SDS011;42627;42.646;23.642;2023-01-04T09:43:14;26.77;;;9.48;;
56752;SDS011;42627;42.646;23.642;2023-01-04T09:45:20;23.30;;;9.75;;
56752;SDS011;42627;42.646;23.642;2023-01-04T09:50:18;23.60;;;8.52;;
56752;SDS011;42627;42.646;23.642;2023-01-04T09:52:37;16.95;;;8.38;;
56752;SDS011;42627;42.646;23.642;2023-01-04T09:54:45;16.52;;;7.55;;
56752;SDS011;42627;42.646;23.642;2023-01-04T09:56:50;15.95;;;7.90;;
56752;SDS011;42627;42.646;23.642;2023-01-04T09:58:53;17.85;;;8.07;;
56752;SDS011;42627;42.646;23.642;2023-01-04T10:00:58;21.10;;;8.43;;
56752;SDS011;42627;42.646;23.642;2023-01-04T10:03:09;21.83;;;8.50;;
56752;SDS011;42627;42.646;23.642;2023-01-04T10:05:22;20.92;;;8.35;;
56752;SDS011;42627;42.646;23.642;2023-01-04T10:07:28;14.23;;;7.95;;
56752;SDS011;42627;42.646;23.642;2023-01-04T10:09:30;20.02;;;8.85;;
56752;SDS011;42627;42.646;23.642;2023-01-04T10:23:16;21.55;;;7.97;;
56752;SDS011;42627;42.646;23.642;2023-01-04T10:27:30;17.63;;;7.57;;
56752;SDS011;42627;42.646;23.642;2023-01-04T10:31:47;15.50;;;6.70;;
56752;SDS011;42627;42.646;23.642;2023-01-04T10:33:53;16.23;;;7.60;;
56752;SDS011;42627;42.646;23.642;2023-01-04T10:36:19;16.80;;;7.35;;
56752;SDS011;42627;42.646;23.642;2023-01-04T10:38:28;20.38;;;7.53;;
56752;SDS011;42627;42.646;23.642;2023-01-04T10:40:32;25.08;;;8.63;;
56752;SDS011;42627;42.646;23.642;2023-01-04T10:50:03;18.10;;;6.82;;
56752;SDS011;42627;42.646;23.642;2023-01-04T10:52:14;17.67;;;8.85;;
56752;SDS011;42627;42.646;23.642;2023-01-04T10:54:27;16.95;;;7.35;;
56752;SDS011;42627;42.646;23.642;2023-01-04T10:56:38;15.38;;;6.95;;
56752;SDS011;42627;42.646;23.642;2023-01-04T10:58:51;19.73;;;7.95;;
56752;SDS011;42627;42.646;23.642;2023-01-04T11:00:54;16.13;;;6.95;;
56752;SDS011;42627;42.646;23.642;2023-01-04T11:05:04;19.77;;;6.95;;
56752;SDS011;42627;42.646;23.642;2023-01-04T11:07:15;15.30;;;7.18;;
56752;SDS011;42627;42.646;23.642;2023-01-04T11:09:22;17.30;;;5.93;;
56752;SDS011;42627;42.646;23.642;2023-01-04T11:11:26;15.80;;;6.38;;
56752;SDS011;42627;42.646;23.642;2023-01-04T11:13:29;15.75;;;5.28;;
56752;SDS011;42627;42.646;23.642;2023-01-04T11:15:30;12.90;;;5.50;;
56752;SDS011;42627;42.646;23.642;2023-01-04T11:17:32;9.40;;;5.32;;
56752;SDS011;42627;42.646;23.642;2023-01-04T11:19:33;13.18;;;5.70;;
56752;SDS011;42627;42.646;23.642;2023-01-04T11:21:36;13.65;;;6.40;;
56752;SDS011;42627;42.646;23.642;2023-01-04T11:23:39;11.70;;;5.38;;
56752;SDS011;42627;42.646;23.642;2023-01-04T11:25:54;12.30;;;5.45;;
56752;SDS011;42627;42.646;23.642;2023-01-04T11:30:02;11.65;;;4.75;;
56752;SDS011;42627;42.646;23.642;2023-01-04T11:32:04;11.68;;;5.60;;
56752;SDS011;42627;42.646;23.642;2023-01-04T11:34:12;14.18;;;6.05;;
56752;SDS011;42627;42.646;23.642;2023-01-04T11:36:13;16.73;;;6.93;;
56752;SDS011;42627;42.646;23.642;2023-01-04T11:38:31;16.80;;;7.40;;
56752;SDS011;42627;42.646;23.642;2023-01-04T11:40:32;20.02;;;8.50;;
56752;SDS011;42627;42.646;23.642;2023-01-04T11:42:33;19.13;;;8.20;;
56752;SDS011;42627;42.646;23.642;2023-01-04T11:44:34;16.52;;;7.40;;
56752;SDS011;42627;42.646;23.642;2023-01-04T11:46:35;13.68;;;5.75;;
56752;SDS011;42627;42.646;23.642;2023-01-04T11:50:47;21.30;;;8.32;;
56752;SDS011;42627;42.646;23.642;2023-01-04T11:52:50;21.55;;;8.98;;
56752;SDS011;42627;42.646;23.642;2023-01-04T11:54:51;14.40;;;6.47;;
56752;SDS011;42627;42.646;23.642;2023-01-04T11:56:56;18.83;;;7.88;;
56752;SDS011;42627;42.646;23.642;2023-01-04T12:01:17;21.70;;;7.70;;
56752;SDS011;42627;42.646;23.642;2023-01-04T12:05:53;15.85;;;6.32;;
56752;SDS011;42627;42.646;23.642;2023-01-04T12:07:57;18.45;;;8.13;;
56752;SDS011;42627;42.646;23.642;2023-01-04T12:09:59;28.02;;;9.75;;
56752;SDS011;42627;42.646;23.642;2023-01-04T12:12:00;27.85;;;10.52;;
56752;SDS011;42627;42.646;23.642;2023-01-04T12:14:01;13.30;;;5.88;;
56752;SDS011;42627;42.646;23.642;2023-01-04T12:18:25;13.93;;;6.88;;
56752;SDS011;42627;42.646;23.642;2023-01-04T12:20:27;15.32;;;6.28;;
56752;SDS011;42627;42.646;23.642;2023-01-04T12:22:33;21.33;;;8.00;;
56752;SDS011;42627;42.646;23.642;2023-01-04T12:24:35;15.63;;;6.88;;
56752;SDS011;42627;42.646;23.642;2023-01-04T12:26:40;13.32;;;5.70;;
56752;SDS011;42627;42.646;23.642;2023-01-04T12:28:43;15.82;;;6.45;;
56752;SDS011;42627;42.646;23.642;2023-01-04T12:30:45;12.25;;;5.60;;
56752;SDS011;42627;42.646;23.642;2023-01-04T12:32:46;16.88;;;6.40;;
56752;SDS011;42627;42.646;23.642;2023-01-04T12:35:02;15.77;;;5.82;;
56752;SDS011;42627;42.646;23.642;2023-01-04T12:39:44;13.93;;;5.45;;
56752;SDS011;42627;42.646;23.642;2023-01-04T12:44:06;15.13;;;6.32;;
56752;SDS011;42627;42.646;23.642;2023-01-04T12:48:48;13.60;;;6.15;;
56752;SDS011;42627;42.646;23.642;2023-01-04T12:55:24;15.13;;;6.10;;
56752;SDS011;42627;42.646;23.642;2023-01-04T12:59:34;18.30;;;6.75;;
56752;SDS011;42627;42.646;23.642;2023-01-04T13:01:35;17.77;;;6.00;;
56752;SDS011;42627;42.646;23.642;2023-01-04T13:03:56;14.98;;;5.75;;
56752;SDS011;42627;42.646;23.642;2023-01-04T13:06:02;12.80;;;6.13;;
56752;SDS011;42627;42.646;23.642;2023-01-04T13:08:15;13.15;;;5.72;;
56752;SDS011;42627;42.646;23.642;2023-01-04T13:10:35;15.00;;;6.18;;
56752;SDS011;42627;42.646;23.642;2023-01-04T13:12:40;19.30;;;6.65;;
56752;SDS011;42627;42.646;23.642;2023-01-04T13:14:43;14.75;;;6.28;;
56752;SDS011;42627;42.646;23.642;2023-01-04T13:16:56;12.63;;;5.72;;
56752;SDS011;42627;42.646;23.642;2023-01-04T13:19:01;13.63;;;6.18;;
56752;SDS011;42627;42.646;23.642;2023-01-04T13:21:07;17.45;;;6.05;;
56752;SDS011;42627;42.646;23.642;2023-01-04T13:23:10;16.02;;;5.88;;
56752;SDS011;42627;42.646;23.642;2023-01-04T13:25:12;16.08;;;6.93;;
56752;SDS011;42627;42.646;23.642;2023-01-04T13:27:15;13.43;;;4.85;;
56752;SDS011;42627;42.646;23.642;2023-01-04T13:29:21;13.85;;;5.88;;
56752;SDS011;42627;42.646;23.642;2023-01-04T13:31:22;15.68;;;6.22;;
56752;SDS011;42627;42.646;23.642;2023-01-04T13:33:23;12.48;;;5.25;;
56752;SDS011;42627;42.646;23.642;2023-01-04T13:35:24;11.32;;;4.75;;
56752;SDS011;42627;42.646;23.642;2023-01-04T13:37:32;13.43;;;5.82;;